Time;durP1;ratioP1;P1;durP2;ratioP2;P2;SDS_P1;SDS_P2;PMS_P1;PMS_P2;Temp;Humidity;BMP_temperature;BMP_pressure;BME280_temperature;BME280_humidity;BME280_pressure;Samples;Min_cycle;Max_cycle;Signal;HPM_P1;HPM_P2
2022/04/05 00:01:45;;;;;;;;;;;;;;;5.53;75.21;99110.53;5040006;28;19928;-63
2022/04/05 00:04:29;;;;;;;;;;;;;;;5.54;74.65;99105.41;5040070;28;20332;-62
2022/04/05 00:07:13;;;;;;;;;;;;;;;5.55;74.70;99108.81;5040507;28;19928;-63
2022/04/05 00:09:57;;;;;;;;;;;;;;;5.55;75.30;99102.00;5025162;28;19971;-63
2022/04/05 00:12:41;;;;;;;;;;;;;;;5.55;75.03;99094.28;5040058;28;19928;-63
2022/04/05 00:15:24;;;;;;;;;;;;;;;5.56;74.71;99101.16;5039998;28;19932;-63
2022/04/05 00:18:09;;;;;;;;;;;;;;;5.57;75.30;99099.44;5025527;28;19928;-63
2022/04/05 00:20:52;;;;;;;;;;;;;;;5.56;74.88;99092.56;5040479;28;20011;-62
2022/04/05 00:23:36;;;;;;;;;;;;;;;5.57;74.93;99094.31;5040324;28;19928;-63
2022/04/05 00:26:20;;;;;;;;;;;;;;;5.58;75.06;99096.03;5024745;28;20296;-62
2022/04/05 00:29:04;;;;;;;;;;;;;;;5.57;74.80;99095.19;5040449;28;20327;-63
2022/04/05 00:31:49;;;;;;;;;;;;;;;5.58;74.95;99102.06;5039890;28;19928;-62
2022/04/05 00:34:32;;;;;;;;;;;;;;;5.59;75.09;99093.53;5039154;28;19975;-62
2022/04/05 00:37:16;;;;;;;;;;;;;;;5.59;75.57;99084.94;5039681;28;19943;-62
2022/04/05 00:40:01;;;;;;;;;;;;;;;5.61;75.18;99080.69;5039895;28;20395;-62
2022/04/05 00:42:45;;;;;;;;;;;;;;;5.61;75.50;99084.13;5040290;28;19928;-62
2022/04/05 00:45:29;;;;;;;;;;;;;;;5.62;75.41;99093.56;5039561;28;20422;-63
2022/04/05 00:48:21;;;;;;;;;;;;;;;5.62;75.10;99078.13;5039682;28;19944;-63
2022/04/05 00:51:05;;;;;;;;;;;;;;;5.63;75.01;99079.03;5025176;28;20422;-62
2022/04/05 00:53:50;;;;;;;;;;;;;;;5.66;74.86;99078.22;5035425;28;19936;-62
2022/04/05 00:56:35;;;;;;;;;;;;;;;5.66;75.05;99085.91;5036501;28;20016;-63
2022/04/05 00:59:19;;;;;;;;;;;;;;;5.66;75.67;99076.53;5021947;28;20067;-63
2022/04/05 01:02:03;;;;;;;;;;;;;;;5.67;75.24;99085.97;5036785;28;20276;-62
2022/04/05 01:04:47;;;;;;;;;;;;;;;5.68;75.70;99067.13;5036421;28;19928;-63
2022/04/05 01:07:32;;;;;;;;;;;;;;;5.69;75.10;99075.69;5021010;28;19971;-63
2022/04/05 01:10:16;;;;;;;;;;;;;;;5.70;75.07;99078.28;5036349;28;20358;-62
2022/04/05 01:13:00;;;;;;;;;;;;;;;5.71;75.03;99080.03;5021529;28;19927;-62
2022/04/05 01:15:44;;;;;;;;;;;;;;;5.72;75.14;99076.63;5036715;28;19975;-62
2022/04/05 01:18:28;;;;;;;;;;;;;;;5.73;75.24;99072.38;5035868;28;19928;-63
2022/04/05 01:21:14;;;;;;;;;;;;;;;5.72;75.23;99071.47;5021488;28;20390;-62
2022/04/05 01:24:05;;;;;;;;;;;;;;;5.73;75.50;99069.78;5036277;28;19967;-62
2022/04/05 01:26:54;;;;;;;;;;;;;;;5.75;75.70;99078.41;5021470;28;20039;-62
2022/04/05 01:29:38;;;;;;;;;;;;;;;5.76;75.96;99072.44;5021079;28;19975;-62
2022/04/05 01:32:22;;;;;;;;;;;;;;;5.75;75.16;99081.84;5035622;28;20002;-63
2022/04/05 01:35:07;;;;;;;;;;;;;;;5.77;75.86;99074.13;5035788;28;19927;-62
2022/04/05 01:37:50;;;;;;;;;;;;;;;5.76;75.24;99064.72;5020471;28;20300;-63
2022/04/05 01:40:35;;;;;;;;;;;;;;;5.77;75.23;99061.28;5035819;28;19928;-62
2022/04/05 01:43:19;;;;;;;;;;;;;;;5.77;75.22;99063.84;5007659;28;19931;-62
2022/04/05 01:46:03;;;;;;;;;;;;;;;5.77;75.66;99064.72;5035306;28;19927;-63
2022/04/05 01:48:47;;;;;;;;;;;;;;;5.78;75.86;99060.44;5020691;28;19975;-62
2022/04/05 01:51:32;;;;;;;;;;;;;;;5.79;75.59;99057.03;5020238;28;19928;-63
2022/04/05 01:54:17;;;;;;;;;;;;;;;5.81;75.22;99059.66;5020615;28;19952;-64
2022/04/05 01:57:01;;;;;;;;;;;;;;;5.81;75.61;99057.09;5020238;28;20499;-63
2022/04/05 01:59:45;;;;;;;;;;;;;;;5.79;75.36;99062.19;5035822;28;19971;-63
2022/04/05 02:02:29;;;;;;;;;;;;;;;5.80;76.03;99058.78;5035402;28;19932;-62
2022/04/05 02:05:13;;;;;;;;;;;;;;;5.82;75.77;99066.53;5035370;28;19928;-62
2022/04/05 02:07:57;;;;;;;;;;;;;;;5.83;75.43;99065.69;5035697;28;20456;-63
2022/04/05 02:10:40;;;;;;;;;;;;;;;5.83;76.20;99056.28;5035640;28;19927;-62
2022/04/05 02:13:24;;;;;;;;;;;;;;;5.83;76.02;99061.41;5035066;28;19939;-62
2022/04/05 02:16:08;;;;;;;;;;;;;;;5.85;75.43;99061.44;5035267;28;19929;-63
2022/04/05 02:18:52;;;;;;;;;;;;;;;5.85;76.18;99053.72;5019695;28;19929;-62
2022/04/05 02:21:37;;;;;;;;;;;;;;;5.86;76.21;99060.59;5020134;28;19943;-62
2022/04/05 02:24:21;;;;;;;;;;;;;;;5.85;75.91;99054.59;5035399;28;19971;-63
2022/04/05 02:27:05;;;;;;;;;;;;;;;5.86;75.64;99055.44;5020211;28;20384;-62
2022/04/05 02:29:49;;;;;;;;;;;;;;;5.87;76.02;99055.50;5020024;28;20012;-63
2022/04/05 02:32:33;;;;;;;;;;;;;;;5.87;76.39;99057.19;5034517;28;19928;-62
2022/04/05 02:35:18;;;;;;;;;;;;;;;5.89;76.16;99068.38;5034307;28;19983;-63
2022/04/05 02:38:02;;;;;;;;;;;;;;;5.89;76.04;99065.81;5019729;28;20044;-64
2022/04/05 02:40:47;;;;;;;;;;;;;;;5.90;75.98;99065.84;5034709;28;20350;-64
2022/04/05 02:43:31;;;;;;;;;;;;;;;5.91;75.78;99057.31;5035047;28;20292;-62
2022/04/05 02:46:15;;;;;;;;;;;;;;;5.91;75.98;99056.41;5034233;28;19931;-62
2022/04/05 02:48:59;;;;;;;;;;;;;;;5.91;76.24;99054.72;5033701;28;19995;-62
2022/04/05 02:51:43;;;;;;;;;;;;;;;5.92;76.14;99050.44;5034184;28;19967;-63
2022/04/05 02:54:27;;;;;;;;;;;;;;;5.92;76.42;99051.28;5033578;28;19927;-62
2022/04/05 02:57:12;;;;;;;;;;;;;;;5.93;75.82;99045.31;5034743;28;19967;-62
2022/04/05 02:59:56;;;;;;;;;;;;;;;5.93;76.41;99049.59;5019405;28;19928;-62
2022/04/05 03:02:41;;;;;;;;;;;;;;;5.95;76.35;99047.94;5019352;28;19928;-62
2022/04/05 03:05:25;;;;;;;;;;;;;;;5.95;76.47;99050.50;5019543;28;19932;-63
2022/04/05 03:08:09;;;;;;;;;;;;;;;5.95;76.02;99055.66;5033355;28;19971;-63
2022/04/05 03:10:53;;;;;;;;;;;;;;;5.96;75.84;99057.38;5033771;28;19928;-63
2022/04/05 03:13:37;;;;;;;;;;;;;;;5.97;76.20;99060.81;5034204;28;20371;-63
2022/04/05 03:16:21;;;;;;;;;;;;;;;5.96;76.68;99054.81;5018839;28;20344;-63
2022/04/05 03:19:05;;;;;;;;;;;;;;;5.97;76.23;99056.53;5018721;28;19972;-62
2022/04/05 03:21:49;;;;;;;;;;;;;;;5.97;76.27;99059.13;5033926;28;19928;-62
2022/04/05 03:24:34;;;;;;;;;;;;;;;5.97;76.27;99050.50;5019038;28;20006;-63
2022/04/05 03:27:18;;;;;;;;;;;;;;;5.98;75.92;99053.13;5018806;28;19928;-63
2022/04/05 03:30:03;;;;;;;;;;;;;;;5.98;76.38;99045.41;5033807;28;19928;-62
2022/04/05 03:32:47;;;;;;;;;;;;;;;5.99;76.34;99049.72;5019212;28;20387;-63
2022/04/05 03:35:30;;;;;;;;;;;;;;;5.97;76.35;99053.97;5033986;28;19928;-62
2022/04/05 03:38:15;;;;;;;;;;;;;;;5.99;76.21;99047.16;5034129;28;20315;-62
2022/04/05 03:40:58;;;;;;;;;;;;;;;5.99;76.50;99042.00;5019055;28;20343;-64
2022/04/05 03:43:42;;;;;;;;;;;;;;;6.00;76.70;99045.47;5034211;28;19975;-63
2022/04/05 03:46:26;;;;;;;;;;;;;;;6.01;76.65;99044.63;5033586;28;20280;-62
2022/04/05 03:49:10;;;;;;;;;;;;;;;6.00;76.07;99045.47;5033684;28;19966;-62
2022/04/05 03:51:54;;;;;;;;;;;;;;;6.01;76.54;99049.78;5033587;28;19928;-62
2022/04/05 03:54:38;;;;;;;;;;;;;;;6.01;76.63;99054.91;5034111;28;19929;-62
2022/04/05 03:57:22;;;;;;;;;;;;;;;6.01;76.52;99053.19;5033394;28;20403;-62
2022/04/05 04:00:08;;;;;;;;;;;;;;;6.01;76.39;99048.06;5033776;28;20360;-62
2022/04/05 04:02:51;;;;;;;;;;;;;;;6.01;76.50;99050.63;5033341;28;19968;-63
2022/04/05 04:05:35;;;;;;;;;;;;;;;6.02;76.37;99047.22;5033480;28;20407;-62
2022/04/05 04:08:19;;;;;;;;;;;;;;;6.03;76.70;99053.25;5033446;28;19928;-63
2022/04/05 04:11:03;;;;;;;;;;;;;;;6.03;76.59;99046.38;5033976;28;19928;-62
2022/04/05 04:13:47;;;;;;;;;;;;;;;6.04;76.17;99040.41;5033831;28;19928;-63
2022/04/05 04:16:30;;;;;;;;;;;;;;;6.03;76.69;99048.97;5018615;28;19970;-63
2022/04/05 04:19:14;;;;;;;;;;;;;;;6.04;76.73;99050.69;5033808;28;19928;-63
2022/04/05 04:21:58;;;;;;;;;;;;;;;6.03;76.83;99046.38;5033055;28;19968;-62
2022/04/05 04:24:42;;;;;;;;;;;;;;;6.04;76.53;99047.25;5033246;28;19967;-62
2022/04/05 04:27:26;;;;;;;;;;;;;;;6.03;77.00;99043.81;5034185;28;19936;-62
2022/04/05 04:30:10;;;;;;;;;;;;;;;6.04;76.66;99042.97;5022113;28;19931;-63
2022/04/05 04:32:54;;;;;;;;;;;;;;;6.04;76.83;99048.13;5037013;28;19928;-63
2022/04/05 04:35:38;;;;;;;;;;;;;;;6.04;76.57;99044.69;5036902;28;20338;-64
2022/04/05 04:38:23;;;;;;;;;;;;;;;6.05;76.29;99043.84;5037051;28;19928;-62
2022/04/05 04:41:07;;;;;;;;;;;;;;;6.06;76.36;99051.59;5036804;28;19948;-63
2022/04/05 04:43:51;;;;;;;;;;;;;;;6.07;76.71;99053.31;5037332;28;20337;-63
2022/04/05 04:46:35;;;;;;;;;;;;;;;6.06;77.03;99051.59;5036723;28;20343;-63
2022/04/05 04:49:18;;;;;;;;;;;;;;;6.06;77.09;99054.16;5036657;28;20292;-63
2022/04/05 04:52:03;;;;;;;;;;;;;;;6.09;76.41;99045.63;5036011;28;20281;-62
2022/04/05 04:54:47;;;;;;;;;;;;;;;6.09;77.00;99061.06;5021785;28;20292;-63
2022/04/05 04:57:31;;;;;;;;;;;;;;;6.10;77.22;99052.50;5021887;28;20284;-62
2022/04/05 05:00:15;;;;;;;;;;;;;;;6.10;76.68;99057.66;5037012;28;19979;-63
2022/04/05 05:02:59;;;;;;;;;;;;;;;6.11;77.18;99056.81;5036353;28;19948;-62
2022/04/05 05:05:43;;;;;;;;;;;;;;;6.09;76.88;99051.66;5036350;28;19928;-65
2022/04/05 05:08:27;;;;;;;;;;;;;;;6.13;76.85;99054.28;5036743;28;19967;-62
2022/04/05 05:11:11;;;;;;;;;;;;;;;6.13;77.06;99054.28;5021212;28;19944;-63
2022/04/05 05:13:55;;;;;;;;;;;;;;;6.13;77.33;99054.28;5036752;28;19928;-62
2022/04/05 05:16:38;;;;;;;;;;;;;;;6.14;77.18;99054.31;5035370;28;19944;-63
2022/04/05 05:19:23;;;;;;;;;;;;;;;6.16;76.98;99064.59;5036117;28;19928;-63
2022/04/05 05:22:06;;;;;;;;;;;;;;;6.16;77.25;99052.63;5036344;28;19928;-63
2022/04/05 05:24:50;;;;;;;;;;;;;;;6.16;77.13;99057.78;5036433;28;19944;-63
2022/04/05 05:27:34;;;;;;;;;;;;;;;6.18;77.12;99057.78;5036019;28;19990;-62
2022/04/05 05:30:18;;;;;;;;;;;;;;;6.18;77.25;99056.09;5036461;28;19928;-62
2022/04/05 05:33:02;;;;;;;;;;;;;;;6.19;77.31;99059.53;5035996;28;19928;-63
2022/04/05 05:35:47;;;;;;;;;;;;;;;6.19;77.34;99054.38;5035791;28;19928;-63
2022/04/05 05:38:31;;;;;;;;;;;;;;;6.19;76.73;99059.53;5035502;28;19928;-62
2022/04/05 05:41:15;;;;;;;;;;;;;;;6.18;77.12;99065.50;5021323;28;19971;-63
2022/04/05 05:43:59;;;;;;;;;;;;;;;6.18;77.32;99063.81;5021216;28;20021;-63
2022/04/05 05:46:43;;;;;;;;;;;;;;;6.20;77.48;99063.84;5035598;28;19993;-62
2022/04/05 05:49:27;;;;;;;;;;;;;;;6.19;77.31;99067.25;5036116;28;20284;-63
2022/04/05 05:52:11;;;;;;;;;;;;;;;6.20;77.20;99071.56;5035977;28;19932;-62
2022/04/05 05:54:54;;;;;;;;;;;;;;;6.20;76.75;99068.97;5035753;28;19970;-63
2022/04/05 05:57:38;;;;;;;;;;;;;;;6.19;77.22;99068.13;5035179;28;20024;-63
2022/04/05 06:00:22;;;;;;;;;;;;;;;6.20;77.27;99081.84;5020386;28;19986;-62
2022/04/05 06:03:08;;;;;;;;;;;;;;;6.20;77.22;99077.59;5020351;28;19987;-62
2022/04/05 06:05:52;;;;;;;;;;;;;;;6.22;77.27;99075.03;5035119;28;19971;-63
2022/04/05 06:08:36;;;;;;;;;;;;;;;6.23;77.30;99075.03;5020648;28;19929;-63
2022/04/05 06:11:20;;;;;;;;;;;;;;;6.23;77.25;99082.75;5035191;28;20014;-63
2022/04/05 06:14:04;;;;;;;;;;;;;;;6.24;77.42;99083.66;5035667;28;19944;-63
2022/04/05 06:16:48;;;;;;;;;;;;;;;6.25;77.62;99091.38;5019844;28;19992;-63
2022/04/05 06:19:32;;;;;;;;;;;;;;;6.28;77.20;99087.13;5035218;28;19928;-62
2022/04/05 06:22:16;;;;;;;;;;;;;;;6.27;77.03;99094.00;5035079;28;20403;-63
2022/04/05 06:25:00;;;;;;;;;;;;;;;6.28;77.19;99093.16;5035653;28;20418;-63
2022/04/05 06:27:44;;;;;;;;;;;;;;;6.29;77.62;99094.91;5034784;28;19928;-62
2022/04/05 06:30:27;;;;;;;;;;;;;;;6.31;77.53;99105.22;5034708;28;20460;-63
2022/04/05 06:33:12;;;;;;;;;;;;;;;6.31;77.60;99105.22;5034872;28;19927;-64
2022/04/05 06:35:57;;;;;;;;;;;;;;;6.32;77.32;99106.94;5019689;28;20367;-62
2022/04/05 06:38:41;;;;;;;;;;;;;;;6.32;77.07;99115.50;5020063;28;20020;-63
2022/04/05 06:41:26;;;;;;;;;;;;;;;6.33;77.68;99109.53;5034832;28;20012;-63
2022/04/05 06:44:10;;;;;;;;;;;;;;;6.35;77.88;99109.56;5020017;28;20344;-63
2022/04/05 06:46:54;;;;;;;;;;;;;;;6.37;77.86;99120.78;5034671;28;19935;-63
2022/04/05 06:49:38;;;;;;;;;;;;;;;6.37;77.87;99118.19;5034529;28;19967;-62
2022/04/05 06:52:21;;;;;;;;;;;;;;;6.39;77.68;99124.22;5034353;28;19967;-63
2022/04/05 06:55:06;;;;;;;;;;;;;;;6.39;77.71;99119.94;5034121;28;19931;-62
2022/04/05 06:57:51;;;;;;;;;;;;;;;6.42;77.22;99119.13;5033639;28;20427;-62
2022/04/05 07:00:36;;;;;;;;;;;;;;;6.42;77.69;99120.84;5034779;28;20327;-62
2022/04/05 07:03:20;;;;;;;;;;;;;;;6.43;77.72;99118.28;5019019;28;19975;-63
2022/04/05 07:06:04;;;;;;;;;;;;;;;6.43;77.22;99117.44;5034123;28;19932;-62
2022/04/05 07:08:49;;;;;;;;;;;;;;;6.44;78.02;99122.59;5019629;28;19967;-62
2022/04/05 07:11:34;;;;;;;;;;;;;;;6.45;77.57;99126.06;5019300;28;19975;-62
2022/04/05 07:14:17;;;;;;;;;;;;;;;6.45;77.95;99129.47;5033154;28;20348;-63
2022/04/05 07:17:02;;;;;;;;;;;;;;;6.44;77.98;99127.75;5034160;28;19955;-62
2022/04/05 07:19:46;;;;;;;;;;;;;;;6.46;77.74;99122.66;5018904;28;19948;-63
2022/04/05 07:22:30;;;;;;;;;;;;;;;6.47;77.96;99122.66;5033975;28;19932;-62
2022/04/05 07:25:14;;;;;;;;;;;;;;;6.46;77.88;99120.94;5033656;28;19967;-62
2022/04/05 07:28:03;;;;;;;;;;;;;;;6.47;77.35;99127.81;5034278;28;20327;-63
2022/04/05 07:30:47;;;;;;;;;;;;;;;6.48;77.85;99119.25;5019225;28;19936;-63
2022/04/05 07:33:31;;;;;;;;;;;;;;;6.48;77.72;99120.94;5034055;28;20427;-62
2022/04/05 07:36:15;;;;;;;;;;;;;;;6.48;77.46;99121.81;5033957;28;20067;-66
2022/04/05 07:38:59;;;;;;;;;;;;;;;6.50;77.55;99121.84;5033412;28;20039;-62
2022/04/05 07:41:43;;;;;;;;;;;;;;;6.51;77.78;99123.56;5033946;28;19928;-63
2022/04/05 07:44:27;;;;;;;;;;;;;;;6.52;78.02;99126.19;5033469;28;20296;-62
2022/04/05 07:47:11;;;;;;;;;;;;;;;6.51;77.61;99119.31;5034151;28;19932;-62
2022/04/05 07:49:55;;;;;;;;;;;;;;;6.51;77.93;99123.56;5033038;28;19947;-62
2022/04/05 07:52:39;;;;;;;;;;;;;;;6.52;77.92;99120.16;5018822;28;20410;-62
2022/04/05 07:55:23;;;;;;;;;;;;;;;6.53;77.77;99129.63;5033599;28;20430;-62
2022/04/05 07:58:07;;;;;;;;;;;;;;;6.53;78.02;99127.03;5033645;28;19936;-63
2022/04/05 08:00:51;;;;;;;;;;;;;;;6.54;78.06;99136.50;5033291;28;19928;-62
2022/04/05 08:03:35;;;;;;;;;;;;;;;6.57;78.03;99128.84;5037502;28;19944;-62
2022/04/05 08:06:19;;;;;;;;;;;;;;;6.57;78.06;99131.41;5037430;28;19967;-63
2022/04/05 08:09:03;;;;;;;;;;;;;;;6.57;78.01;99125.38;5037159;28;20406;-63
2022/04/05 08:11:47;;;;;;;;;;;;;;;6.60;78.16;99125.44;5037484;28;19943;-63
2022/04/05 08:14:31;;;;;;;;;;;;;;;6.60;77.71;99128.91;5037351;28;19928;-63
2022/04/05 08:17:15;;;;;;;;;;;;;;;6.63;77.92;99118.63;5037456;28;20018;-62
2022/04/05 08:19:58;;;;;;;;;;;;;;;6.65;77.93;99121.25;5037806;28;19928;-62
2022/04/05 08:22:43;;;;;;;;;;;;;;;6.67;78.58;99128.16;5037486;28;19976;-63
2022/04/05 08:25:28;;;;;;;;;;;;;;;6.69;78.04;99130.78;5036974;28;19927;-62
2022/04/05 08:28:12;;;;;;;;;;;;;;;6.68;77.97;99122.16;5036296;28;19928;-63
2022/04/05 08:30:56;;;;;;;;;;;;;;;6.72;78.43;99141.09;5022585;28;19940;-62
2022/04/05 08:33:40;;;;;;;;;;;;;;;6.72;78.16;99133.38;5036863;28;19975;-63
2022/04/05 08:36:24;;;;;;;;;;;;;;;6.73;78.39;99131.69;5022405;28;19928;-63
2022/04/05 08:39:08;;;;;;;;;;;;;;;6.73;78.26;99129.97;5022011;28;19944;-63
2022/04/05 08:41:52;;;;;;;;;;;;;;;6.77;77.95;99141.19;5036902;28;19928;-63
2022/04/05 08:44:36;;;;;;;;;;;;;;;6.77;78.04;99139.47;5037326;28;20315;-62
2022/04/05 08:47:23;;;;;;;;;;;;;;;6.79;78.33;99136.91;5036933;28;19928;-63
2022/04/05 08:50:07;;;;;;;;;;;;;;;6.79;78.25;99145.53;5022327;28;19975;-63
2022/04/05 08:52:54;;;;;;;;;;;;;;;6.81;78.13;99137.81;5021937;28;19927;-62
2022/04/05 08:55:37;;;;;;;;;;;;;;;6.81;78.06;99146.44;5022168;28;19929;-62
2022/04/05 08:58:22;;;;;;;;;;;;;;;6.82;78.00;99144.69;5036501;28;20399;-63
2022/04/05 09:01:05;;;;;;;;;;;;;;;6.83;78.03;99151.59;5036732;28;20390;-62
2022/04/05 09:03:50;;;;;;;;;;;;;;;6.82;78.22;99148.16;5036345;28;19936;-63
2022/04/05 09:06:36;;;;;;;;;;;;;;;6.83;77.99;99149.00;5036857;28;20025;-62
2022/04/05 09:09:22;;;;;;;;;;;;;;;6.83;78.41;99146.44;5021675;28;19944;-63
2022/04/05 09:12:15;;;;;;;;;;;;;;;6.87;78.27;99150.81;5021637;28;19974;-63
2022/04/05 09:14:59;;;;;;;;;;;;;;;6.88;78.62;99149.97;5035363;28;20019;-62
2022/04/05 09:17:46;;;;;;;;;;;;;;;6.89;78.47;99150.81;5036142;28;19928;-62
2022/04/05 09:20:30;;;;;;;;;;;;;;;6.91;78.56;99155.19;5021236;28;19932;-63
2022/04/05 09:23:25;;;;;;;;;;;;;;;6.91;78.26;99155.19;5036062;28;20410;-62
2022/04/05 09:26:11;;;;;;;;;;;;;;;6.92;78.35;99156.03;5035872;28;20016;-62
2022/04/05 09:29:05;;;;;;;;;;;;;;;6.92;78.32;99161.19;5021501;28;20285;-62
2022/04/05 09:31:49;;;;;;;;;;;;;;;6.92;78.28;99162.06;5035995;28;19967;-63
2022/04/05 09:34:46;;;;;;;;;;;;;;;6.92;78.51;99156.91;5034988;28;19928;-63
2022/04/05 09:37:30;;;;;;;;;;;;;;;6.93;78.23;99156.03;5035984;28;19931;-63
2022/04/05 09:40:14;;;;;;;;;;;;;;;6.96;78.60;99162.97;5021516;28;20380;-62
2022/04/05 09:43:04;;;;;;;;;;;;;;;6.99;78.77;99163.03;5035666;28;19928;-63
2022/04/05 09:45:51;;;;;;;;;;;;;;;6.99;78.60;99150.16;5020757;28;19988;-63
2022/04/05 09:48:36;;;;;;;;;;;;;;;7.00;78.76;99159.63;5035600;28;19983;-62
2022/04/05 09:51:21;;;;;;;;;;;;;;;7.00;78.56;99164.78;5020933;28;19967;-62
2022/04/05 09:54:05;;;;;;;;;;;;;;;7.02;78.45;99170.78;5035502;28;19928;-62
2022/04/05 09:56:48;;;;;;;;;;;;;;;7.02;78.53;99173.34;5035774;28;19928;-63
2022/04/05 09:59:37;;;;;;;;;;;;;;;7.03;79.01;99171.66;5020449;28;19967;-63
2022/04/05 10:02:21;;;;;;;;;;;;;;;7.03;78.68;99167.38;5035703;28;19968;-63
2022/04/05 10:05:08;;;;;;;;;;;;;;;7.04;78.61;99175.97;5035361;28;19931;-63
2022/04/05 10:07:52;;;;;;;;;;;;;;;7.05;78.68;99172.56;5020418;28;19943;-62
2022/04/05 10:10:36;;;;;;;;;;;;;;;7.05;79.00;99178.56;5035357;28;19968;-63
2022/04/05 10:13:20;;;;;;;;;;;;;;;7.06;78.68;99179.44;5035532;28;19947;-63
2022/04/05 10:16:05;;;;;;;;;;;;;;;7.05;78.60;99176.00;5021065;28;19968;-63
2022/04/05 10:18:50;;;;;;;;;;;;;;;7.06;78.82;99182.88;5035282;28;19928;-63
2022/04/05 10:21:35;;;;;;;;;;;;;;;7.07;78.94;99178.63;5035224;28;19928;-62
2022/04/05 10:24:20;;;;;;;;;;;;;;;7.08;79.03;99177.78;5034905;28;20312;-61
2022/04/05 10:27:05;;;;;;;;;;;;;;;7.08;78.75;99175.19;5035770;28;19928;-63
2022/04/05 10:30:07;;;;;;;;;;;;;;;7.09;78.85;99174.31;5034763;28;19928;-63
2022/04/05 10:32:57;;;;;;;;;;;;;;;7.09;78.88;99170.06;5019715;28;19948;-63
2022/04/05 10:35:42;;;;;;;;;;;;;;;7.11;79.00;99175.22;5034478;28;19979;-63
2022/04/05 10:38:28;;;;;;;;;;;;;;;7.11;79.02;99181.25;5034801;28;20435;-62
2022/04/05 10:41:20;;;;;;;;;;;;;;;7.14;78.87;99171.00;5020169;28;19943;-62
2022/04/05 10:44:16;;;;;;;;;;;;;;;7.15;79.03;99177.00;5019681;28;20073;-62
2022/04/05 10:47:01;;;;;;;;;;;;;;;7.16;79.00;99169.28;5034794;28;19928;-63
2022/04/05 10:49:47;;;;;;;;;;;;;;;7.22;79.13;99167.66;5019876;28;19932;-63
2022/04/05 10:52:32;;;;;;;;;;;;;;;7.23;79.08;99154.81;5034580;28;20024;-62
2022/04/05 10:55:20;;;;;;;;;;;;;;;7.26;79.36;99159.16;5020070;28;19951;-63
2022/04/05 10:58:08;;;;;;;;;;;;;;;7.26;79.20;99161.72;5034253;28;19971;-62
2022/04/05 11:01:11;;;;;;;;;;;;;;;7.27;79.09;99156.56;5034274;28;19971;-62
2022/04/05 11:04:16;;;;;;;;;;;;;;;7.30;79.16;99158.34;5034673;28;19928;-62
2022/04/05 11:07:02;;;;;;;;;;;;;;;7.29;79.22;99165.22;5019371;28;19928;-62
2022/04/05 11:09:53;;;;;;;;;;;;;;;7.30;79.40;99155.78;5019181;28;19940;-62
2022/04/05 11:12:42;;;;;;;;;;;;;;;7.29;79.10;99162.63;5034470;28;20024;-63
2022/04/05 11:15:37;;;;;;;;;;;;;;;7.30;79.32;99156.63;5019227;28;20380;-63
2022/04/05 11:18:22;;;;;;;;;;;;;;;7.31;79.29;99147.22;5019279;28;20503;-62
2022/04/05 11:21:08;;;;;;;;;;;;;;;7.32;79.37;99160.09;5019433;28;19932;-62
2022/04/05 11:23:53;;;;;;;;;;;;;;;7.31;79.39;99149.78;5018816;28;20480;-63
2022/04/05 11:26:38;;;;;;;;;;;;;;;7.32;79.45;99160.09;5034419;28;20392;-62
2022/04/05 11:29:23;;;;;;;;;;;;;;;7.32;79.29;99162.69;5033861;28;19928;-63
2022/04/05 11:32:08;;;;;;;;;;;;;;;7.35;79.25;99158.41;5033038;28;20009;-63
2022/04/05 11:34:52;;;;;;;;;;;;;;;7.36;79.17;99160.16;5018875;28;19928;-63
2022/04/05 11:37:36;;;;;;;;;;;;;;;7.37;79.14;99149.84;5032524;28;20022;-62
2022/04/05 11:40:20;;;;;;;;;;;;;;;7.38;79.57;99153.31;5034149;28;20292;-62
2022/04/05 11:43:03;;;;;;;;;;;;;;;7.37;79.32;99155.00;5019218;28;19928;-62
2022/04/05 11:45:48;;;;;;;;;;;;;;;7.37;79.48;99154.16;5033994;28;19928;-63
2022/04/05 11:48:32;;;;;;;;;;;;;;;7.38;79.36;99154.16;5018844;28;19971;-62
2022/04/05 11:51:17;;;;;;;;;;;;;;;7.38;79.54;99146.44;5033731;28;19932;-62
2022/04/05 11:54:08;;;;;;;;;;;;;;;7.37;79.48;99144.69;5034156;28;19928;-64
2022/04/05 11:56:54;;;;;;;;;;;;;;;7.37;79.60;99139.53;5018924;28;19928;-63
2022/04/05 11:59:38;;;;;;;;;;;;;;;7.39;79.17;99148.16;5033545;28;19928;-63
2022/04/05 12:02:28;;;;;;;;;;;;;;;7.39;79.47;99137.84;5033316;28;20391;-62
2022/04/05 12:05:12;;;;;;;;;;;;;;;7.41;79.40;99148.19;5018950;28;20395;-63
2022/04/05 12:07:56;;;;;;;;;;;;;;;7.43;79.72;99149.97;5033483;28;19978;-63
2022/04/05 12:10:41;;;;;;;;;;;;;;;7.44;79.57;99148.22;5033363;28;20351;-63
2022/04/05 12:13:29;;;;;;;9.27;8.00;;;;;;;7.46;79.26;99144.84;5111390;27;20254;-63
2022/04/05 12:16:13;;;;;;;9.13;7.68;;;;;;;7.47;79.36;99151.72;5110342;28;20526;-62
2022/04/05 12:18:57;;;;;;;9.18;6.93;;;;;;;7.49;79.62;99153.44;5111564;28;20568;-63
2022/04/05 12:21:41;;;;;;;8.93;8.02;;;;;;;7.51;80.25;99152.66;5111627;28;20104;-62
2022/04/05 12:24:25;;;;;;;10.93;8.38;;;;;;;7.53;79.42;99138.06;5111478;28;20046;-64
2022/04/05 12:27:09;;;;;;;8.63;7.18;;;;;;;7.55;79.58;99143.22;5109859;28;20548;-62
2022/04/05 12:29:58;;;;;;;8.63;7.20;;;;;;;7.55;79.47;99133.75;5111285;28;20066;-63
2022/04/05 12:32:45;;;;;;;11.23;7.57;;;;;;;7.54;79.58;99132.06;5110048;28;20109;-62
2022/04/05 12:35:32;;;;;;;10.55;7.35;;;;;;;7.56;79.80;99132.06;5111263;28;20098;-62
2022/04/05 12:38:16;;;;;;;8.88;7.70;;;;;;;7.58;80.04;99135.53;5110907;28;20096;-62
2022/04/05 12:41:04;;;;;;;;;;;;;;;7.58;79.84;99133.81;5110325;28;20043;-62
2022/04/05 12:44:10;;;;;;;9.77;7.78;;;;;;;7.58;80.04;99138.13;5109632;28;20385;-62
2022/04/05 12:46:57;;;;;;;7.80;6.95;;;;;;;7.57;79.64;99132.06;5110447;28;20051;-63
2022/04/05 12:50:05;;;;;;;10.27;7.88;;;;;;;7.58;79.78;99128.66;5110798;28;20452;-63
2022/04/05 12:52:59;;;;;;;8.93;6.97;;;;;;;7.61;79.89;99131.28;5109339;28;20051;-62
2022/04/05 12:56:00;;;;;;;8.85;7.68;;;;;;;7.61;79.84;99123.53;5109994;28;20193;-63
2022/04/05 12:58:46;;;;;;;8.10;6.60;;;;;;;7.62;80.26;99116.69;5109761;28;20043;-63
2022/04/05 13:01:30;;;;;;;7.80;6.55;;;;;;;7.62;80.10;99124.44;5110852;28;20118;-63
2022/04/05 13:04:14;;;;;;;9.88;7.28;;;;;;;7.61;79.76;99122.69;5109399;28;20143;-63
2022/04/05 13:07:00;;;;;;;8.05;6.97;;;;;;;7.62;79.69;99127.84;5110531;28;20594;-63
2022/04/05 13:09:44;;;;;;;7.72;6.93;;;;;;;7.62;79.66;99119.28;5109640;28;20468;-63
2022/04/05 13:12:37;;;;;;;8.65;7.82;;;;;;;7.63;80.10;99118.41;5109094;28;20054;-63
2022/04/05 13:15:21;;;;;;;8.13;7.15;;;;;;;7.64;79.71;99120.13;5110224;28;20051;-63
2022/04/05 13:18:06;;;;;;;9.27;7.68;;;;;;;7.65;79.95;99105.53;5109518;28;20082;-63
2022/04/05 13:20:59;;;;;;;10.80;7.50;;;;;;;7.62;79.98;99104.66;5109538;28;20415;-63
2022/04/05 13:23:59;;;;;;;8.20;7.35;;;;;;;7.65;80.05;99102.97;5100943;28;20055;-63
2022/04/05 13:26:48;;;;;;;8.65;6.95;;;;;;;7.67;79.86;99102.13;5095645;28;20052;-63
2022/04/05 13:29:33;;;;;;;8.77;6.88;;;;;;;7.70;80.11;99098.75;5095172;28;20457;-63
2022/04/05 13:32:19;;;;;;;9.32;6.85;;;;;;;7.72;80.25;99103.06;5095302;28;20090;-62
2022/04/05 13:35:06;;;;;;;7.07;6.38;;;;;;;7.75;79.91;99104.78;5096197;28;20423;-63
2022/04/05 13:37:50;;;;;;;9.63;8.63;;;;;;;7.76;80.26;99098.78;5095093;28;20177;-63
2022/04/05 13:40:34;;;;;;;9.70;7.15;;;;;;;7.76;80.25;99099.69;5096441;28;20047;-62
2022/04/05 13:43:19;;;;;;;8.43;7.53;;;;;;;7.79;80.24;99104.00;5096081;28;20051;-62
2022/04/05 13:46:04;;;;;;;9.60;8.15;;;;;;;7.78;80.12;99094.53;5094806;28;20476;-62
2022/04/05 13:48:49;;;;;;;8.27;7.45;;;;;;;7.77;79.99;99097.94;5094787;28;20113;-62
2022/04/05 13:51:36;;;;;;;;;;;;;;;7.79;79.88;99096.25;5095636;28;20419;-63
2022/04/05 13:54:21;;;;;;;8.57;7.57;;;;;;;7.78;80.04;99104.84;5096125;28;19923;-63
2022/04/05 13:57:05;;;;;;;;;;;;;;;7.76;80.13;99094.53;5096267;28;20050;-63
2022/04/05 13:59:49;;;;;;;10.45;9.32;;;;;;;7.75;80.23;99099.63;5095839;28;19968;-62
2022/04/05 14:02:33;;;;;;;9.63;8.20;;;;;;;7.73;79.89;99094.47;5095992;28;20457;-63
2022/04/05 14:05:17;;;;;;;11.23;9.90;;;;;;;7.72;80.29;99094.44;5096008;28;20122;-63
2022/04/05 14:08:02;;;;;;;14.65;10.35;;;;;;;7.70;80.03;99088.41;5095475;28;20093;-62
2022/04/05 14:10:46;;;;;;;11.73;8.75;;;;;;;7.71;80.31;99092.69;5095362;28;20047;-62
2022/04/05 14:13:31;;;;;;;11.52;10.20;;;;;;;7.69;80.22;99092.69;5095905;28;20135;-62
2022/04/05 14:16:15;;;;;;;12.48;10.68;;;;;;;7.73;80.45;99093.59;5095627;28;20419;-63
2022/04/05 14:18:59;;;;;;;;;;;;;;;7.74;80.15;99087.59;5095550;28;20056;-63